Belo Horizonte, Brazil
Current Conditions -  °F | °C
As of 12:00 PM on Tuesday 27 Jan 2015 (Local Time) from SBBH Reporting Station
Broken Clouds Broken Clouds  
Wind Chill: 81°   Ceiling: 10000
Heat Index: 82°   Visibility: 6mi
Dew Point: 64°   Wind: 5mph
Humidity: 58%   Direction: 80°E
Pressure: 30.12"   Gusts: NA
Location:  19.92°S, 43.94°W
Report Text: SBBH 271400Z 08004KT 9999 FEW030 BKN100 27/18 Q1020
Loading
Personal Weather Stations






























Interactive Weather Map New forecast layout! Learn more

10-Day Weather Forecast

Advertisements
Track Severe Weather on mobile